createdAt,value
2019-02-24T00:01:19.434Z,-0.09
2019-02-24T00:02:19.122Z,-0.13
2019-02-24T00:03:19.143Z,-0.10
2019-02-24T00:04:19.138Z,-0.14
2019-02-24T00:05:19.383Z,-0.14
2019-02-24T00:06:19.009Z,-0.13
2019-02-24T00:07:19.569Z,-0.21
2019-02-24T00:08:19.372Z,-0.11
2019-02-24T00:09:19.001Z,-0.24
2019-02-24T00:10:18.903Z,-0.25
2019-02-24T00:11:18.865Z,-0.35
2019-02-24T00:15:18.824Z,-0.06
2019-02-24T00:17:18.683Z,-0.03
2019-02-24T00:18:18.653Z,-0.13
2019-02-24T00:19:18.652Z,-0.03
2019-02-24T00:20:18.655Z,-0.20
2019-02-24T00:21:18.964Z,-0.14
2019-02-24T00:22:18.606Z,-0.09
2019-02-24T00:23:18.605Z,-0.07
2019-02-24T00:24:18.603Z,-0.16
2019-02-24T00:25:18.472Z,-0.10
2019-02-24T00:26:18.534Z,-0.04
2019-02-24T00:27:18.420Z,-0.10
2019-02-24T00:28:20.190Z,-0.14
2019-02-24T00:29:18.358Z,-0.10
2019-02-24T00:30:18.325Z,-0.07
2019-02-24T00:31:18.300Z,-0.06
2019-02-24T00:32:18.423Z,-0.06
2019-02-24T00:33:18.369Z,-0.16
2019-02-24T00:35:18.522Z,-0.17
2019-02-24T00:36:18.156Z,-0.14
2019-02-24T00:37:18.210Z,-0.17
2019-02-24T00:38:18.160Z,-0.21
2019-02-24T00:39:18.080Z,-0.24
2019-02-24T00:40:18.157Z,-0.28
2019-02-24T00:41:18.016Z,-0.28
2019-02-24T00:42:18.323Z,-0.39
2019-02-24T00:44:18.009Z,-0.39
2019-02-24T00:45:17.916Z,-0.24
2019-02-24T00:46:17.935Z,-0.27
2019-02-24T00:47:17.847Z,-0.24
2019-02-24T00:48:19.167Z,-0.28
2019-02-24T00:49:17.808Z,-0.29
2019-02-24T00:50:17.820Z,-0.31
2019-02-24T00:51:18.103Z,-0.25
2019-02-24T00:52:17.800Z,-0.24
2019-02-24T00:54:18.116Z,-0.24
2019-02-24T00:56:17.765Z,-0.29
2019-02-24T00:58:17.683Z,-0.29
2019-02-24T01:01:17.773Z,-0.25
2019-02-24T01:03:17.477Z,-0.28
2019-02-24T01:05:17.516Z,-0.24
2019-02-24T01:06:17.325Z,-0.22
2019-02-24T01:07:17.624Z,-0.21
2019-02-24T01:08:17.379Z,-0.29
2019-02-24T01:09:17.430Z,-0.32
2019-02-24T01:10:17.297Z,-0.38
2019-02-24T01:11:17.348Z,-0.35
2019-02-24T01:12:17.157Z,-0.35
2019-02-24T01:14:17.301Z,-0.35
2019-02-24T01:15:17.123Z,-0.34
2019-02-24T01:16:17.121Z,-0.34
2019-02-24T01:17:17.022Z,-0.45
2019-02-24T01:18:16.992Z,-0.35
2019-02-24T01:19:17.279Z,-0.28
2019-02-24T01:20:17.025Z,-0.32
2019-02-24T01:21:16.957Z,-0.27
2019-02-24T01:22:16.962Z,-0.28
2019-02-24T01:23:16.922Z,-0.27
2019-02-24T01:24:16.899Z,-0.28
2019-02-24T01:25:16.814Z,-0.25
2019-02-24T01:26:17.080Z,-0.28
2019-02-24T01:28:24.879Z,-0.24
2019-02-24T01:29:16.761Z,-0.14
2019-02-24T01:30:16.719Z,-0.14
2019-02-24T01:31:16.744Z,-0.13
2019-02-24T01:32:17.002Z,-0.14
2019-02-24T01:33:17.220Z,-0.10
2019-02-24T01:34:16.594Z,-0.13
2019-02-24T01:35:16.994Z,-0.11
2019-02-24T01:36:16.591Z,-0.09
2019-02-24T01:37:16.457Z,-0.11
2019-02-24T01:39:16.453Z,-0.17
2019-02-24T01:40:16.714Z,-0.03
2019-02-24T01:41:16.366Z,-0.01
2019-02-24T01:42:16.405Z,-0.06
2019-02-24T01:43:16.294Z,-0.01
2019-02-24T01:44:16.269Z,-0.10
2019-02-24T01:45:16.355Z,-0.10
2019-02-24T01:46:16.304Z,-0.07
2019-02-24T01:47:16.494Z,-0.10
2019-02-24T01:48:16.150Z,-0.01
2019-02-24T01:50:16.099Z,-0.03
2019-02-24T01:51:16.128Z,-0.01
2019-02-24T01:52:16.048Z,0.04
2019-02-24T01:53:16.027Z,0.07
2019-02-24T01:54:16.295Z,0.09
2019-02-24T01:56:15.929Z,0.02
2019-02-24T01:57:16.055Z,-0.01
2019-02-24T01:58:15.868Z,0.05
2019-02-24T02:01:16.099Z,-0.10
2019-02-24T02:02:17.179Z,-0.07
2019-02-24T02:04:15.893Z,-0.03
2019-02-24T02:05:15.771Z,-0.07
2019-02-24T02:06:15.666Z,-0.16
2019-02-24T02:07:15.704Z,-0.21
2019-02-24T02:08:15.903Z,-0.24
2019-02-24T02:09:15.616Z,-0.22
2019-02-24T02:10:15.560Z,-0.13
2019-02-24T02:11:15.564Z,-0.14
2019-02-24T02:12:15.475Z,-0.09
2019-02-24T02:13:15.526Z,-0.16
2019-02-24T02:14:15.834Z,-0.11
2019-02-24T02:15:15.447Z,-0.21
2019-02-24T02:16:15.375Z,-0.17
2019-02-24T02:17:15.346Z,-0.25
2019-02-24T02:18:15.365Z,-0.17
2019-02-24T02:19:15.298Z,-0.22
2019-02-24T02:20:15.566Z,-0.16
2019-02-24T02:21:15.280Z,-0.29
2019-02-24T02:22:15.205Z,-0.17
2019-02-24T02:23:15.174Z,-0.22
2019-02-24T02:24:15.142Z,-0.14
2019-02-24T02:25:15.130Z,-0.13
2019-02-24T02:26:15.405Z,-0.17
2019-02-24T02:27:15.124Z,-0.16
2019-02-24T02:28:15.045Z,-0.22
2019-02-24T02:29:15.012Z,-0.20
2019-02-24T02:30:14.983Z,-0.16
2019-02-24T02:31:14.958Z,-0.16
2019-02-24T02:32:15.243Z,-0.21
2019-02-24T02:33:15.055Z,-0.22
2019-02-24T02:34:14.864Z,-0.22
2019-02-24T02:35:14.838Z,-0.11
2019-02-24T02:36:14.810Z,-0.13
2019-02-24T02:37:14.784Z,-0.13
2019-02-24T02:38:15.067Z,-0.20
2019-02-24T02:39:14.782Z,-0.14
2019-02-24T02:40:14.707Z,-0.10
2019-02-24T02:41:14.671Z,-0.13
2019-02-24T02:42:14.645Z,-0.11
2019-02-24T02:43:14.625Z,-0.10
2019-02-24T02:44:14.995Z,-0.13
2019-02-24T02:46:14.629Z,-0.21
2019-02-24T02:47:14.653Z,-0.17
2019-02-24T02:48:14.626Z,-0.27
2019-02-24T02:49:14.588Z,-0.24
2019-02-24T02:51:14.875Z,-0.25
2019-02-24T02:52:14.898Z,-0.29
2019-02-24T02:54:14.482Z,-0.32
2019-02-24T02:55:14.462Z,-0.45
2019-02-24T02:56:14.308Z,-0.31
2019-02-24T02:57:14.347Z,-0.43
2019-02-24T02:59:14.658Z,-0.45
2019-02-24T03:00:14.278Z,-0.47
2019-02-24T03:03:14.200Z,-0.47
2019-02-24T03:04:14.434Z,-0.49
2019-02-24T03:05:14.146Z,-0.43
2019-02-24T03:07:14.088Z,-0.50
2019-02-24T03:08:14.097Z,-0.49
2019-02-24T03:09:13.974Z,-0.52
2019-02-24T03:10:14.394Z,-0.39
2019-02-24T03:11:14.419Z,-0.55
2019-02-24T03:12:14.010Z,-0.55
2019-02-24T03:13:14.272Z,-0.47
2019-02-24T03:14:13.891Z,-0.60
2019-02-24T03:15:13.875Z,-0.42
2019-02-24T03:16:13.844Z,-0.57
2019-02-24T03:17:13.831Z,-0.53
2019-02-24T03:18:13.731Z,-0.53
2019-02-24T03:19:13.733Z,-0.47
2019-02-24T03:20:14.453Z,-0.45
2019-02-24T03:21:13.954Z,-0.32
2019-02-24T03:22:13.529Z,-0.38
2019-02-24T03:23:13.561Z,-0.39
2019-02-24T03:24:13.481Z,-0.29
2019-02-24T03:25:13.470Z,-0.27
2019-02-24T03:26:13.419Z,-0.24
2019-02-24T03:27:13.705Z,-0.27
2019-02-24T03:28:13.356Z,-0.21
2019-02-24T03:29:13.381Z,-0.11
2019-02-24T03:30:13.304Z,-0.17
2019-02-24T03:31:13.293Z,-0.14
2019-02-24T03:32:13.251Z,-0.14
2019-02-24T03:33:13.515Z,-0.21
2019-02-24T03:34:13.186Z,-0.16
2019-02-24T03:35:13.209Z,-0.21
2019-02-24T03:36:13.173Z,-0.27
2019-02-24T03:37:13.106Z,-0.27
2019-02-24T03:38:13.076Z,-0.35
2019-02-24T03:39:13.348Z,-0.45
2019-02-24T03:40:13.021Z,-0.49
2019-02-24T03:41:13.041Z,-0.47
2019-02-24T03:42:12.962Z,-0.50
2019-02-24T03:43:12.932Z,-0.53
2019-02-24T03:44:12.908Z,-0.66
2019-02-24T03:45:13.186Z,-0.60
2019-02-24T03:46:12.856Z,-0.66
2019-02-24T03:47:12.903Z,-0.63
2019-02-24T03:48:12.804Z,-0.71
2019-02-24T03:51:13.015Z,-0.73
2019-02-24T03:52:12.700Z,-0.75
2019-02-24T03:53:12.757Z,-0.63
2019-02-24T03:54:12.627Z,-0.64
2019-02-24T03:55:12.600Z,-0.73
2019-02-24T03:56:12.567Z,-0.67
2019-02-24T03:57:12.892Z,-0.68
2019-02-24T03:58:12.528Z,-0.66
2019-02-24T03:59:15.335Z,-0.66
2019-02-24T04:00:12.474Z,-0.67
2019-02-24T04:01:12.431Z,-0.70
2019-02-24T04:04:12.644Z,-0.78
2019-02-24T04:05:12.475Z,-0.73
2019-02-24T04:06:12.306Z,-0.81
2019-02-24T04:07:12.264Z,-0.76
2019-02-24T04:08:12.317Z,-0.68
2019-02-24T04:09:12.416Z,-0.78
2019-02-24T04:10:12.176Z,-0.78
2019-02-24T04:11:12.714Z,-0.79
2019-02-24T04:12:12.424Z,-0.76
2019-02-24T04:13:12.236Z,-0.70
2019-02-24T04:14:12.287Z,-0.70
2019-02-24T04:15:12.099Z,-0.81
2019-02-24T04:16:12.205Z,-0.84
2019-02-24T04:18:12.275Z,-0.98
2019-02-24T04:19:11.993Z,-0.94
2019-02-24T04:20:11.983Z,-0.98
2019-02-24T04:21:11.870Z,-0.95
2019-02-24T04:22:11.847Z,-0.94
2019-02-24T04:23:11.861Z,-0.94
2019-02-24T04:24:11.785Z,-1.00
2019-02-24T04:25:12.051Z,-1.04
2019-02-24T04:26:11.810Z,-0.98
2019-02-24T04:27:11.860Z,-1.00
2019-02-24T04:28:11.666Z,-1.00
2019-02-24T04:29:11.697Z,-1.00
2019-02-24T04:30:11.612Z,-1.18
2019-02-24T04:31:11.601Z,-1.07
2019-02-24T04:32:11.863Z,-1.08
2019-02-24T04:33:11.527Z,-1.01
2019-02-24T04:34:11.514Z,-1.03
2019-02-24T04:35:11.528Z,-1.07
2019-02-24T04:36:11.464Z,-1.05
2019-02-24T04:37:11.425Z,-1.11
2019-02-24T04:38:11.401Z,-1.11
2019-02-24T04:39:11.653Z,-1.08
2019-02-24T04:40:11.334Z,-1.08
2019-02-24T04:41:11.345Z,-1.16
2019-02-24T04:42:11.284Z,-1.21
2019-02-24T04:43:11.256Z,-1.21
2019-02-24T04:45:11.510Z,-1.15
2019-02-24T04:47:11.186Z,-1.16
2019-02-24T04:48:11.109Z,-1.19
2019-02-24T04:49:11.083Z,-1.07
2019-02-24T04:50:11.042Z,-1.11
2019-02-24T04:51:11.318Z,-1.07
2019-02-24T04:53:11.034Z,-1.07
2019-02-24T04:55:10.914Z,-1.08
2019-02-24T04:57:11.180Z,-1.13
2019-02-24T04:59:10.882Z,-0.97
2019-02-24T05:00:10.774Z,-0.98
2019-02-24T05:02:10.717Z,-1.07
2019-02-24T05:03:12.114Z,-1.05
2019-02-24T05:05:10.689Z,-1.13
2019-02-24T05:06:10.606Z,-1.10
2019-02-24T05:07:10.593Z,-1.04
2019-02-24T05:08:10.548Z,-1.19
2019-02-24T05:09:10.514Z,-1.18
2019-02-24T05:10:10.491Z,-1.21
2019-02-24T05:11:10.508Z,-1.26
2019-02-24T05:12:10.466Z,-1.19
2019-02-24T05:13:10.403Z,-1.22
2019-02-24T05:14:10.397Z,-1.21
2019-02-24T05:15:10.356Z,-1.22
2019-02-24T05:16:10.640Z,-1.23
2019-02-24T05:17:10.385Z,-1.21
2019-02-24T05:18:10.262Z,-1.22
2019-02-24T05:19:10.447Z,-1.16
2019-02-24T05:20:10.230Z,-1.16
2019-02-24T05:21:10.190Z,-1.15
2019-02-24T05:22:10.441Z,-1.11
2019-02-24T05:23:10.206Z,-1.10
2019-02-24T05:24:10.155Z,-1.11
2019-02-24T05:26:12.348Z,-1.23
2019-02-24T05:29:11.688Z,-1.22
2019-02-24T05:30:10.078Z,-1.31
2019-02-24T05:33:10.107Z,-1.37
2019-02-24T05:34:09.955Z,-1.36
2019-02-24T05:35:10.016Z,-1.34
2019-02-24T05:36:10.451Z,-1.39
2019-02-24T05:37:09.831Z,-1.46
2019-02-24T05:38:09.761Z,-1.43
2019-02-24T05:39:09.666Z,-1.37
2019-02-24T05:40:09.633Z,-1.49
2019-02-24T05:41:09.647Z,-1.52
2019-02-24T05:42:09.571Z,-1.43
2019-02-24T05:43:09.906Z,-1.41
2019-02-24T05:44:09.593Z,-1.39
2019-02-24T05:45:09.485Z,-1.25
2019-02-24T05:46:09.527Z,-1.26
2019-02-24T05:48:09.404Z,-1.25
2019-02-24T05:49:09.369Z,-1.11
2019-02-24T05:50:09.648Z,-1.11
2019-02-24T05:53:09.329Z,-1.11
2019-02-24T05:54:09.306Z,-1.11
2019-02-24T05:55:09.227Z,-1.13
2019-02-24T05:56:09.174Z,-1.18
2019-02-24T05:57:09.442Z,-1.19
2019-02-24T05:58:09.129Z,-1.08
2019-02-24T06:00:09.145Z,-1.11
2019-02-24T06:02:09.007Z,-1.10
2019-02-24T06:04:09.315Z,-1.11
2019-02-24T06:06:09.293Z,-1.15
2019-02-24T06:07:08.881Z,-1.22
2019-02-24T06:08:08.855Z,-1.22
2019-02-24T06:09:08.824Z,-1.25
2019-02-24T06:10:09.127Z,-1.34
2019-02-24T06:11:08.780Z,-1.26
2019-02-24T06:12:08.970Z,-1.29
2019-02-24T06:13:08.697Z,-1.23
2019-02-24T06:14:08.691Z,-1.31
2019-02-24T06:15:08.641Z,-1.29
2019-02-24T06:16:08.952Z,-1.26
2019-02-24T06:17:08.569Z,-1.31
2019-02-24T06:18:08.612Z,-1.34
2019-02-24T06:19:08.515Z,-1.37
2019-02-24T06:20:08.515Z,-1.25
2019-02-24T06:21:08.459Z,-1.28
2019-02-24T06:22:08.731Z,-1.21
2019-02-24T06:23:08.400Z,-1.22
2019-02-24T06:24:08.674Z,-1.26
2019-02-24T06:25:08.446Z,-1.19
2019-02-24T06:26:08.317Z,-1.23
2019-02-24T06:27:08.314Z,-1.25
2019-02-24T06:28:08.646Z,-1.22
2019-02-24T06:29:08.226Z,-1.23
2019-02-24T06:30:08.269Z,-1.25
2019-02-24T06:31:08.172Z,-1.21
2019-02-24T06:32:08.146Z,-1.28
2019-02-24T06:33:08.116Z,-1.25
2019-02-24T06:34:08.383Z,-1.22
2019-02-24T06:35:08.097Z,-1.34
2019-02-24T06:36:08.134Z,-1.31
2019-02-24T06:37:07.997Z,-1.39
2019-02-24T06:38:07.980Z,-1.41
2019-02-24T06:39:07.950Z,-1.39
2019-02-24T06:40:08.239Z,-1.26
2019-02-24T06:41:07.882Z,-1.26
2019-02-24T06:42:07.920Z,-1.23
2019-02-24T06:43:07.827Z,-1.23
2019-02-24T06:44:07.802Z,-1.23
2019-02-24T06:45:07.794Z,-1.26
2019-02-24T06:46:08.071Z,-1.26
2019-02-24T06:47:07.718Z,-1.22
2019-02-24T06:48:07.779Z,-1.21
2019-02-24T06:49:07.740Z,-1.08
2019-02-24T06:51:07.614Z,-1.07
2019-02-24T06:52:07.571Z,-1.05
2019-02-24T06:53:07.848Z,-1.07
2019-02-24T06:55:07.549Z,-1.03
2019-02-24T06:56:07.459Z,-1.05
2019-02-24T06:57:07.427Z,-0.95
2019-02-24T06:59:07.685Z,-0.97
2019-02-24T07:00:13.873Z,-0.94
2019-02-24T07:01:07.311Z,-0.94
2019-02-24T07:02:07.311Z,-0.90
2019-02-24T07:05:07.521Z,-0.67
2019-02-24T07:06:07.219Z,-0.66
2019-02-24T07:09:08.503Z,-0.64
2019-02-24T07:10:07.219Z,-0.67
2019-02-24T07:11:07.102Z,-0.64
2019-02-24T07:12:07.760Z,-0.47
2019-02-24T07:13:07.081Z,-0.66
2019-02-24T07:14:06.976Z,-0.55
2019-02-24T07:15:06.940Z,-0.50
2019-02-24T07:16:06.926Z,-0.27
2019-02-24T07:17:06.897Z,-0.10
2019-02-24T07:18:06.939Z,0.00
2019-02-24T07:19:07.157Z,0.09
2019-02-24T07:20:06.786Z,0.36
2019-02-24T07:21:06.750Z,0.45
2019-02-24T07:22:06.721Z,0.60
2019-02-24T07:23:06.689Z,0.56
2019-02-24T07:24:06.976Z,0.66
2019-02-24T07:25:06.652Z,0.67
2019-02-24T07:26:06.947Z,0.81
2019-02-24T07:27:06.584Z,0.76
2019-02-24T07:28:06.550Z,0.81
2019-02-24T07:29:06.534Z,0.90
2019-02-24T07:30:06.554Z,0.94
2019-02-24T07:31:06.480Z,0.94
2019-02-24T07:32:06.740Z,1.06
2019-02-24T07:33:06.418Z,1.13
2019-02-24T07:34:06.394Z,1.28
2019-02-24T07:35:06.366Z,1.42
2019-02-24T07:36:06.390Z,1.67
2019-02-24T07:37:12.792Z,1.87
2019-02-24T07:38:06.635Z,2.04
2019-02-24T07:39:06.281Z,2.33
2019-02-24T07:40:06.215Z,2.60
2019-02-24T07:41:06.209Z,2.94
2019-02-24T07:42:06.232Z,3.45
2019-02-24T07:43:06.129Z,3.74
2019-02-24T07:44:06.411Z,4.03
2019-02-24T07:45:06.099Z,4.35
2019-02-24T07:46:06.121Z,4.63
2019-02-24T07:47:06.038Z,4.77
2019-02-24T07:48:06.067Z,4.82
2019-02-24T07:49:06.061Z,4.98
2019-02-24T07:50:06.334Z,4.96
2019-02-24T07:51:06.007Z,4.78
2019-02-24T07:52:05.920Z,4.96
2019-02-24T07:53:05.863Z,4.85
2019-02-24T07:54:05.907Z,4.79
2019-02-24T07:55:05.885Z,4.16
2019-02-24T07:57:06.133Z,3.91
2019-02-24T07:58:05.767Z,4.18
2019-02-24T07:59:05.726Z,4.48
2019-02-24T08:00:05.778Z,4.67
2019-02-24T08:01:05.684Z,4.97
2019-02-24T08:02:05.742Z,5.33
2019-02-24T08:03:06.059Z,5.67
2019-02-24T08:04:05.583Z,5.97
2019-02-24T08:06:05.578Z,5.91
2019-02-24T08:09:05.862Z,5.94
2019-02-24T08:12:06.043Z,5.88
2019-02-24T08:13:06.100Z,5.90
2019-02-24T08:14:05.336Z,6.09
2019-02-24T08:15:05.331Z,6.49
2019-02-24T08:16:05.697Z,7.01
2019-02-24T08:17:05.266Z,7.33
2019-02-24T08:18:05.294Z,7.87
2019-02-24T08:19:05.232Z,8.34
2019-02-24T08:20:05.275Z,8.70
2019-02-24T08:21:05.242Z,8.93
2019-02-24T08:22:05.157Z,8.92
2019-02-24T08:23:05.482Z,8.53
2019-02-24T08:24:05.166Z,8.42
2019-02-24T08:25:05.084Z,8.57
2019-02-24T08:26:05.100Z,8.90
2019-02-24T08:27:05.037Z,9.19
2019-02-24T08:28:05.032Z,9.69
2019-02-24T08:29:05.064Z,9.77
2019-02-24T08:30:05.309Z,10.17
2019-02-24T08:31:05.032Z,9.93
2019-02-24T08:32:04.919Z,9.85
2019-02-24T08:33:04.888Z,9.98
2019-02-24T08:34:04.878Z,10.31
2019-02-24T08:35:04.910Z,10.24
2019-02-24T08:36:04.978Z,10.01
2019-02-24T08:37:05.207Z,10.18
2019-02-24T08:38:04.787Z,10.24
2019-02-24T08:39:04.772Z,10.05
2019-02-24T08:40:04.762Z,9.80
2019-02-24T08:41:04.789Z,9.63
2019-02-24T08:42:04.786Z,9.94
2019-02-24T08:43:04.672Z,9.87
2019-02-24T08:44:04.963Z,9.99
2019-02-24T08:45:04.646Z,10.05
2019-02-24T08:46:04.640Z,10.23
2019-02-24T08:47:04.636Z,10.68
2019-02-24T08:48:04.621Z,10.38
2019-02-24T08:49:04.550Z,10.78
2019-02-24T08:50:04.583Z,10.60
2019-02-24T08:51:04.852Z,10.65
2019-02-24T08:52:04.512Z,10.58
2019-02-24T08:53:04.458Z,10.73
2019-02-24T08:54:04.508Z,10.43
2019-02-24T08:55:04.652Z,11.11
2019-02-24T08:57:04.725Z,11.97
2019-02-24T08:58:04.434Z,11.61
2019-02-24T08:59:04.353Z,11.82
2019-02-24T09:01:04.321Z,12.03
2019-02-24T09:02:04.297Z,12.29
2019-02-24T09:03:04.571Z,12.11
2019-02-24T09:04:04.255Z,12.28
2019-02-24T09:05:04.328Z,12.23
2019-02-24T09:06:04.384Z,11.91
2019-02-24T09:07:04.264Z,11.77
2019-02-24T09:08:04.221Z,11.54
2019-02-24T09:09:04.574Z,11.85
2019-02-24T09:10:04.275Z,11.58
2019-02-24T09:11:04.112Z,12.54
2019-02-24T09:13:04.198Z,12.50
2019-02-24T09:15:04.624Z,12.71
2019-02-24T09:16:04.176Z,13.02
2019-02-24T09:17:04.026Z,13.46
2019-02-24T09:18:04.053Z,13.72
2019-02-24T09:19:04.073Z,13.36
2019-02-24T09:20:03.952Z,13.49
2019-02-24T09:21:04.250Z,13.35
2019-02-24T09:22:03.907Z,13.65
2019-02-24T09:23:03.928Z,13.83
2019-02-24T09:24:03.864Z,14.19
2019-02-24T09:25:03.900Z,14.97
2019-02-24T09:26:03.833Z,15.62
2019-02-24T09:27:04.192Z,15.45
2019-02-24T09:28:03.864Z,15.51
2019-02-24T09:29:03.778Z,14.89
2019-02-24T09:30:03.798Z,14.26
2019-02-24T09:31:03.812Z,14.41
2019-02-24T09:32:03.749Z,14.16
2019-02-24T09:33:03.704Z,14.46
2019-02-24T09:34:03.994Z,14.92
2019-02-24T09:35:03.713Z,15.25
2019-02-24T09:36:03.660Z,15.73
2019-02-24T09:37:03.690Z,15.85
2019-02-24T09:38:03.713Z,15.63
2019-02-24T09:39:03.640Z,15.35
2019-02-24T09:40:03.597Z,15.43
2019-02-24T09:41:03.874Z,16.03
2019-02-24T09:42:03.646Z,16.14
2019-02-24T09:43:03.598Z,16.58
2019-02-24T09:44:03.573Z,16.94
2019-02-24T09:45:03.544Z,16.21
2019-02-24T09:46:03.572Z,15.73
2019-02-24T09:47:03.564Z,16.44
2019-02-24T09:48:03.812Z,16.83
2019-02-24T09:49:03.834Z,16.94
2019-02-24T09:50:03.528Z,17.35
2019-02-24T09:51:03.439Z,17.27
2019-02-24T09:52:03.404Z,17.62
2019-02-24T09:53:03.406Z,17.88
2019-02-24T09:54:03.696Z,18.09
2019-02-24T09:55:03.462Z,18.09
2019-02-24T09:56:03.359Z,17.88
2019-02-24T09:57:03.405Z,17.57
2019-02-24T09:58:03.324Z,17.24
2019-02-24T09:59:03.318Z,17.14
2019-02-24T10:01:10.249Z,17.38
2019-02-24T10:02:03.274Z,17.45
2019-02-24T10:03:03.276Z,17.52
2019-02-24T10:04:03.269Z,17.41
2019-02-24T10:05:03.243Z,16.98
2019-02-24T10:06:03.219Z,17.09
2019-02-24T10:07:03.564Z,17.20
2019-02-24T10:08:03.194Z,17.02
2019-02-24T10:09:03.372Z,17.25
2019-02-24T10:10:03.221Z,17.47
2019-02-24T10:11:03.162Z,17.73
2019-02-24T10:12:03.138Z,17.94
2019-02-24T10:13:03.506Z,17.69
2019-02-24T10:14:03.169Z,17.84
2019-02-24T10:16:03.180Z,18.05
2019-02-24T10:17:04.958Z,17.79
2019-02-24T10:19:03.395Z,17.46
2019-02-24T10:20:03.347Z,17.54
2019-02-24T10:21:03.126Z,17.50
2019-02-24T10:22:03.106Z,17.35
2019-02-24T10:23:03.066Z,17.45
2019-02-24T10:24:03.112Z,17.73
2019-02-24T10:25:05.969Z,17.91
2019-02-24T10:26:03.087Z,17.99
2019-02-24T10:27:02.979Z,18.12
2019-02-24T10:28:02.971Z,18.26
2019-02-24T10:29:02.936Z,18.43
2019-02-24T10:31:03.448Z,18.74
2019-02-24T10:32:02.911Z,18.64
2019-02-24T10:33:02.898Z,18.39
2019-02-24T10:34:02.965Z,18.34
2019-02-24T10:35:03.251Z,18.49
2019-02-24T10:36:02.869Z,18.41
2019-02-24T10:37:03.152Z,18.83
2019-02-24T10:38:02.918Z,18.89
2019-02-24T10:39:02.829Z,19.22
2019-02-24T10:40:02.822Z,19.05
2019-02-24T10:41:02.823Z,19.15
2019-02-24T10:42:02.830Z,19.32
2019-02-24T10:43:03.101Z,18.68
2019-02-24T10:44:02.781Z,18.11
2019-02-24T10:45:02.919Z,17.96
2019-02-24T10:47:02.844Z,17.57
2019-02-24T10:49:03.926Z,18.05
2019-02-24T10:50:02.843Z,18.15
2019-02-24T10:51:02.862Z,18.26
2019-02-24T10:52:02.705Z,18.68
2019-02-24T10:53:02.684Z,18.48
2019-02-24T10:54:02.675Z,19.07
2019-02-24T10:55:02.730Z,19.41
2019-02-24T10:56:02.954Z,19.81
2019-02-24T10:58:02.649Z,19.87
2019-02-24T10:59:02.634Z,19.92
2019-02-24T11:01:02.659Z,19.94
2019-02-24T11:02:02.923Z,20.04
2019-02-24T11:03:02.690Z,20.00
2019-02-24T11:04:02.576Z,19.96
2019-02-24T11:05:02.575Z,20.07
2019-02-24T11:06:02.570Z,19.99
2019-02-24T11:07:02.627Z,19.97
2019-02-24T11:08:02.878Z,20.30
2019-02-24T11:09:02.534Z,20.19
2019-02-24T11:10:03.936Z,20.27
2019-02-24T11:11:02.528Z,20.00
2019-02-24T11:12:02.512Z,19.84
2019-02-24T11:13:02.542Z,20.04
2019-02-24T11:14:02.792Z,20.05
2019-02-24T11:15:02.536Z,20.14
2019-02-24T11:16:02.532Z,20.46
2019-02-24T11:17:02.455Z,20.74
2019-02-24T11:18:02.541Z,20.79
2019-02-24T11:19:02.497Z,20.77
2019-02-24T11:20:02.785Z,21.03
2019-02-24T11:21:02.419Z,20.92
2019-02-24T11:22:02.534Z,21.23
2019-02-24T11:23:02.416Z,21.20
2019-02-24T11:24:02.492Z,21.50
2019-02-24T11:26:02.689Z,21.18
2019-02-24T11:28:02.667Z,21.20
2019-02-24T11:29:02.754Z,20.14
2019-02-24T11:30:03.549Z,20.14
2019-02-24T11:31:02.438Z,20.64
2019-02-24T11:32:02.642Z,20.75
2019-02-24T11:34:02.422Z,21.28
2019-02-24T11:35:02.353Z,21.26
2019-02-24T11:36:02.956Z,21.32
2019-02-24T11:37:02.511Z,21.16
2019-02-24T11:38:02.703Z,21.18
2019-02-24T11:39:02.343Z,21.41
2019-02-24T11:41:02.282Z,21.20
2019-02-24T11:42:02.273Z,20.70
2019-02-24T11:44:02.807Z,21.04
2019-02-24T11:45:03.233Z,21.45
2019-02-24T11:46:02.245Z,21.53
2019-02-24T11:47:02.467Z,21.56
2019-02-24T11:48:02.295Z,21.59
2019-02-24T11:49:02.208Z,21.58
2019-02-24T11:50:02.610Z,21.47
2019-02-24T11:51:02.298Z,21.43
2019-02-24T11:52:04.085Z,21.20
2019-02-24T11:53:02.210Z,21.90
2019-02-24T11:54:02.242Z,22.04
2019-02-24T11:56:02.555Z,21.14
2019-02-24T11:57:02.165Z,20.56
2019-02-24T11:59:02.144Z,21.03
2019-02-24T12:01:02.154Z,20.79
2019-02-24T12:03:02.520Z,20.26
2019-02-24T12:04:02.116Z,20.33
2019-02-24T12:06:02.390Z,19.92
2019-02-24T12:07:02.167Z,20.27
2019-02-24T12:08:02.188Z,20.88
2019-02-24T12:09:05.247Z,21.23
2019-02-24T12:10:02.288Z,21.19
2019-02-24T12:11:02.488Z,21.16
2019-02-24T12:12:02.177Z,21.13
2019-02-24T12:14:02.164Z,21.59
2019-02-24T12:15:02.876Z,22.18
2019-02-24T12:16:02.039Z,22.52
2019-02-24T12:17:02.133Z,22.25
2019-02-24T12:18:02.071Z,22.52
2019-02-24T12:19:02.041Z,21.88
2019-02-24T12:20:02.845Z,22.00
2019-02-24T12:21:02.049Z,22.34
2019-02-24T12:22:02.273Z,22.58
2019-02-24T12:23:01.985Z,22.81
2019-02-24T12:24:01.962Z,22.91
2019-02-24T12:25:02.582Z,22.89
2019-02-24T12:26:02.466Z,22.51
2019-02-24T12:27:01.936Z,22.41
2019-02-24T12:28:02.542Z,22.64
2019-02-24T12:29:02.955Z,22.85
2019-02-24T12:30:03.664Z,22.85
2019-02-24T12:31:01.996Z,22.04
2019-02-24T12:32:01.969Z,21.77
2019-02-24T12:33:01.918Z,22.01
2019-02-24T12:34:01.901Z,21.85
2019-02-24T12:35:02.203Z,21.84
2019-02-24T12:36:01.998Z,21.94
2019-02-24T12:38:01.920Z,21.14
2019-02-24T12:39:01.938Z,21.58
2019-02-24T12:40:02.188Z,21.90
2019-02-24T12:41:02.206Z,21.96
2019-02-24T12:42:01.849Z,21.97
2019-02-24T12:43:01.852Z,22.06
2019-02-24T12:44:01.907Z,22.00
2019-02-24T12:45:01.844Z,22.43
2019-02-24T12:46:01.861Z,21.88
2019-02-24T12:47:02.114Z,22.03
2019-02-24T12:49:01.865Z,22.33
2019-02-24T12:50:03.606Z,21.82
2019-02-24T12:51:02.247Z,21.74
2019-02-24T12:52:01.842Z,21.74
2019-02-24T12:53:01.924Z,22.00
2019-02-24T12:54:02.107Z,22.51
2019-02-24T12:55:01.759Z,22.95
2019-02-24T12:56:01.796Z,23.01
2019-02-24T12:57:01.723Z,22.41
2019-02-24T12:58:01.825Z,21.96
2019-02-24T12:59:01.787Z,21.58
2019-02-24T13:00:02.888Z,21.73
2019-02-24T13:01:02.085Z,22.04
2019-02-24T13:02:05.749Z,22.19
2019-02-24T13:03:01.721Z,22.33
2019-02-24T13:04:01.751Z,22.41
2019-02-24T13:05:02.002Z,22.04
2019-02-24T13:06:01.787Z,21.98
2019-02-24T13:07:02.083Z,21.97
2019-02-24T13:08:01.739Z,21.56
2019-02-24T13:10:02.099Z,22.15
2019-02-24T13:11:01.861Z,22.59
2019-02-24T13:12:01.878Z,22.99
2019-02-24T13:13:02.479Z,23.67
2019-02-24T13:14:02.096Z,23.84
2019-02-24T13:15:03.330Z,23.52
2019-02-24T13:16:01.856Z,23.59
2019-02-24T13:17:01.661Z,23.60
2019-02-24T13:18:01.623Z,22.81
2019-02-24T13:19:01.705Z,22.66
2019-02-24T13:20:03.248Z,22.93
2019-02-24T13:22:01.617Z,22.61
2019-02-24T13:23:01.972Z,22.98
2019-02-24T13:24:01.541Z,23.13
2019-02-24T13:25:01.609Z,23.21
2019-02-24T13:26:02.445Z,22.98
2019-02-24T13:27:01.653Z,22.81
2019-02-24T13:28:01.619Z,22.53
2019-02-24T13:29:01.581Z,22.61
2019-02-24T13:30:01.856Z,22.73
2019-02-24T13:31:01.541Z,22.74
2019-02-24T13:32:01.991Z,22.67
2019-02-24T13:33:01.494Z,22.34
2019-02-24T13:34:01.464Z,22.46
2019-02-24T13:35:01.491Z,22.83
2019-02-24T13:36:01.484Z,23.22
2019-02-24T13:37:01.541Z,23.25
2019-02-24T13:38:01.902Z,23.34
2019-02-24T13:39:01.574Z,23.60
2019-02-24T13:42:01.436Z,23.13
2019-02-24T13:43:01.729Z,23.26
2019-02-24T13:44:01.776Z,23.03
2019-02-24T13:45:01.405Z,22.86
2019-02-24T13:46:01.406Z,22.64
2019-02-24T13:48:01.470Z,22.23
2019-02-24T13:49:01.452Z,22.01
2019-02-24T13:50:01.442Z,22.30
2019-02-24T13:52:01.723Z,22.04
2019-02-24T13:54:04.674Z,21.82
2019-02-24T13:55:02.053Z,21.96
2019-02-24T13:56:01.552Z,22.15
2019-02-24T13:57:01.359Z,22.51
2019-02-24T13:58:01.317Z,22.49
2019-02-24T13:59:01.598Z,22.27
2019-02-24T14:00:01.468Z,22.51
2019-02-24T14:01:01.370Z,22.52
2019-02-24T14:02:02.003Z,22.76
2019-02-24T14:03:02.033Z,22.96
2019-02-24T14:04:01.289Z,22.83
2019-02-24T14:05:01.288Z,23.01
2019-02-24T14:06:01.725Z,22.92
2019-02-24T14:07:01.233Z,22.88
2019-02-24T14:08:01.251Z,22.76
2019-02-24T14:09:01.425Z,22.62
2019-02-24T14:10:01.393Z,22.77
2019-02-24T14:11:01.243Z,22.83
2019-02-24T14:12:01.629Z,22.61
2019-02-24T14:13:01.512Z,22.12
2019-02-24T14:15:02.482Z,21.97
2019-02-24T14:16:02.719Z,21.96
2019-02-24T14:19:02.502Z,22.27
2019-02-24T14:20:01.433Z,22.22
2019-02-24T14:21:01.129Z,22.36
2019-02-24T14:22:01.135Z,22.30
2019-02-24T14:23:01.196Z,22.11
2019-02-24T14:24:01.242Z,22.21
2019-02-24T14:25:01.961Z,22.34
2019-02-24T14:26:01.106Z,22.36
2019-02-24T14:27:01.227Z,22.31
2019-02-24T14:28:01.147Z,21.94
2019-02-24T14:29:01.281Z,22.01
2019-02-24T14:30:02.388Z,21.53
2019-02-24T14:31:01.233Z,21.71
2019-02-24T14:32:01.951Z,22.11
2019-02-24T14:33:01.328Z,22.51
2019-02-24T14:34:01.210Z,22.43
2019-02-24T14:35:01.165Z,22.28
2019-02-24T14:36:01.025Z,22.30
2019-02-24T14:40:01.457Z,22.91